This is the latest recevied weather packets stored in our database for station/object Krozingen. If no packets are shown the sender has not sent any weather packets the latest 10 day(s).
| Time | Temp. | Humidity | Pressure | Rain* | Wind** | Luminosity | Snow |
|---|---|---|---|---|---|---|---|
| 1777604532 | 6.67° C | 51% | 1024.9 hPa | 0 mm | - | - | - |
| 1777602733 | 6.11° C | 56% | 1024.9 hPa | 0 mm | - | - | - |
| 1777600931 | 6.67° C | 51% | 1024.8 hPa | 0 mm | - | - | - |
| 1777599131 | 6.11° C | 54% | 1024.6 hPa | 0 mm | - | - | - |
| 1777597331 | 6.67° C | 53% | 1024.6 hPa | 0 mm | - | - | - |
| 1777595529 | 7.22° C | 53% | 1024.4 hPa | 0 mm | - | - | - |
| 1777593730 | 8.33° C | 52% | 1024.1 hPa | 0 mm | - | - | - |
| 1777591929 | 8.33° C | 51% | 1024.1 hPa | 0 mm | - | - | - |
| 1777590129 | 8.33° C | 51% | 1023.9 hPa | 0 mm | - | - | - |
| 1777588329 | 8.89° C | 49% | 1023.7 hPa | 0 mm | - | - | - |
| 1777586529 | 10.56° C | 43% | 1023.7 hPa | 0 mm | - | - | - |
| 1777584729 | 11.67° C | 38% | 1023.5 hPa | 0 mm | - | - | - |
| 1777582929 | 12.22° C | 35% | 1023.4 hPa | 0 mm | - | - | - |
| 1777581135 | 13.89° C | 31% | 1023.2 hPa | 0 mm | - | - | - |
| 1777579329 | 15° C | 28% | 1022.6 hPa | 0 mm | - | - | - |
| 1777577529 | 15.56° C | 27% | 1022.4 hPa | 0 mm | - | - | - |
| 1777575735 | 16.67° C | 26% | 1022 hPa | 0 mm | - | - | - |
| 1777573930 | 18.33° C | 24% | 1021.8 hPa | 0 mm | - | - | - |
| 1777572132 | 19.44° C | 23% | 1021.3 hPa | 0 mm | - | - | - |
| 1777570330 | 20.56° C | 23% | 1021.1 hPa | 0 mm | - | - | - |
| 1777568531 | 21.11° C | 23% | 1020.9 hPa | 0 mm | - | - | - |
| 1777566730 | 21.67° C | 23% | 1020.7 hPa | 0 mm | - | - | - |
| 1777564930 | 22.22° C | 23% | 1020.4 hPa | 0 mm | - | - | - |
| 1777563132 | 22.78° C | 23% | 1020.4 hPa | 0 mm | - | - | - |
| 1777559530 | 22.22° C | 22% | 1020.5 hPa | 0 mm | - | - | - |
* Rain since midnight (hover to see other rain measurements)
** Current wind speed in m/s (hover to see current wind gust speed)